Time;durP1;ratioP1;P1;durP2;ratioP2;P2;SDS_P1;SDS_P2;PMS_P1;PMS_P2;Temp;Humidity;BMP_temperature;BMP_pressure;BME280_temperature;BME280_humidity;BME280_pressure;Samples;Min_cycle;Max_cycle;Signal;HPM_P1;HPM_P2
2023/02/04 00:00:44;;;;;;;16.05;11.25;;;;;;;1.68;100.00;100264.41;5073347;28;20543;-72
2023/02/04 00:03:11;;;;;;;17.63;11.45;;;;;;;1.82;100.00;100264.59;5056551;28;20028;-74
2023/02/04 00:05:36;;;;;;;15.40;12.02;;;;;;;1.95;100.00;100263.03;5074723;28;20390;-74
2023/02/04 00:08:02;;;;;;;15.30;11.18;;;;;;;1.80;100.00;100217.78;5073988;28;20032;-72
2023/02/04 00:10:28;;;;;;;15.32;11.57;;;;;;;1.39;100.00;100160.53;5074972;28;20020;-73
2023/02/04 00:16:15;;;;;;;18.30;12.63;;;;;;;2.14;100.00;100263.25;5074876;28;20039;-73
2023/02/04 00:18:40;;;;;;;19.15;13.43;;;;;;;2.09;100.00;100264.03;5074191;28;20271;-73
2023/02/04 00:21:05;;;;;;;17.70;12.07;;;;;;;1.87;100.00;100242.91;5056603;28;20035;-74
2023/02/04 00:26:52;;;;;;;15.45;12.32;;;;;;;1.88;100.00;100223.72;5074493;28;20497;-73
2023/02/04 00:29:17;;;;;;;19.42;13.00;;;;;;;1.48;100.00;100165.66;5074319;28;20028;-73
2023/02/04 00:31:43;;;;;;;16.60;12.50;;;;;;;1.62;100.00;100191.69;5055804;28;20020;-73
2023/02/04 00:37:30;;;;;;;15.32;11.65;;;;;;;1.29;100.00;100135.41;5074476;28;20078;-73
2023/02/04 00:39:56;;;;;;;15.70;12.07;;;;;;;1.06;100.00;100119.25;5055245;28;20539;-73
2023/02/04 00:42:21;;;;;;;16.88;12.55;;;;;;;1.37;100.00;100199.72;5073819;28;20024;-73
2023/02/04 00:44:47;;;;;;;16.70;12.43;;;;;;;0.36;100.00;100109.94;5073482;28;20037;-72
2023/02/04 00:47:12;;;;;;;19.15;13.18;;;;;;;1.18;100.00;100136.91;5075753;28;20466;-73
2023/02/04 00:53:06;;;;;;;18.33;13.25;;;;;;;1.74;100.00;100193.50;5074640;28;20043;-73
2023/02/04 00:55:31;;;;;;;18.23;13.95;;;;;;;1.47;100.00;100100.50;5055028;28;20036;-73
2023/02/04 00:57:57;;;;;;;18.45;13.48;;;;;;;1.29;100.00;100113.69;5055621;28;20024;-73
2023/02/04 01:00:22;;;;;;;18.65;14.05;;;;;;;1.65;100.00;100171.69;5073437;28;20035;-73
2023/02/04 01:02:48;;;;;;;18.10;13.98;;;;;;;0.82;100.00;100042.22;5072983;28;20048;-74
2023/02/04 01:05:13;;;;;;;17.30;13.35;;;;;;;1.46;100.00;100099.69;5054908;28;20020;-73
2023/02/04 01:07:39;;;;;;;20.45;13.73;;;;;;;1.17;100.00;100022.63;5073564;28;20055;-73
2023/02/04 01:10:05;;;;;;;18.52;13.32;;;;;;;1.63;100.00;100109.88;5054843;28;20024;-73
2023/02/04 01:12:30;;;;;;;17.50;12.70;;;;;;;1.77;100.00;100186.00;5072780;28;20031;-73
2023/02/04 01:14:55;;;;;;;16.25;12.40;;;;;;;1.22;100.00;100024.34;5072764;28;20024;-73
2023/02/04 01:20:42;;;;;;;24.75;15.70;;;;;;;1.76;100.00;100117.50;5073244;28;20077;-73
2023/02/04 01:23:08;;;;;;;22.75;13.93;;;;;;;2.10;100.00;100147.91;5072779;28;20107;-73
2023/02/04 01:25:33;;;;;;;21.45;14.15;;;;;;;2.37;100.00;100168.19;5073076;28;20114;-73
2023/02/04 01:27:58;;;;;;;18.10;13.35;;;;;;;1.80;100.00;100062.44;5072780;28;20032;-73
2023/02/04 01:33:45;;;;;;;18.83;12.50;;;;;;;2.13;100.00;100137.88;5073428;28;20043;-73
2023/02/04 01:36:12;;;;;;;18.30;12.80;;;;;;;2.23;100.00;100132.97;5054623;28;20025;-72
2023/02/04 01:38:37;;;;;;;16.15;12.50;;;;;;;2.45;100.00;100129.78;5072613;28;20032;-71
2023/02/04 01:41:03;;;;;;;18.92;13.48;;;;;;;1.82;100.00;100058.28;5071368;28;20467;-71
2023/02/04 01:43:29;;;;;;;20.67;16.00;;;;;;;2.12;100.00;100126.19;5072788;28;20024;-72
2023/02/04 01:45:55;;;;;;;20.50;14.93;;;;;;;2.07;100.00;100133.66;5072124;28;20184;-71
2023/02/04 01:48:21;;;;;;;19.90;14.77;;;;;;;2.20;100.00;100122.09;5054417;28;20573;-71
2023/02/04 01:54:13;;;;;;;20.58;14.43;;;;;;;1.64;100.00;100012.19;5072667;28;20081;-72
2023/02/04 02:00:00;;;;;;;20.50;15.10;;;;;;;1.51;100.00;99992.88;5072709;28;20040;-72
2023/02/04 02:02:49;;;;;;;21.38;14.68;;;;;;;2.03;100.00;100078.47;5070702;28;20028;-72
2023/02/04 02:05:25;;;;;;;19.67;15.02;;;;;;;2.26;100.00;100074.47;5072702;28;20086;-71
2023/02/04 02:07:54;;;;;;;20.75;14.27;;;;;;;1.09;100.00;99921.59;5072583;28;20024;-72
2023/02/04 02:10:20;;;;;;;23.00;15.30;;;;;;;1.59;100.00;99993.78;5071107;28;20401;-71
2023/02/04 02:12:46;;;;;;;20.02;14.60;;;;;;;2.07;100.00;100078.53;5054267;28;20028;-72
2023/02/04 02:15:12;;;;;;;16.00;13.15;;;;;;;1.82;100.00;99985.59;5071894;28;20082;-72
2023/02/04 02:17:38;;;;;;;20.55;13.68;;;;;;;2.13;100.00;100042.63;5070647;28;20025;-72
2023/02/04 02:23:45;;;;;;;20.63;14.57;;;;;;;2.21;100.00;100048.53;5072354;28;20057;-73
2023/02/04 02:26:10;;;;;;;21.98;14.70;;;;;;;2.62;100.00;100069.66;5055937;28;20112;-70
2023/02/04 02:31:58;;;;;;;15.90;12.00;;;;;;;1.93;100.00;100052.50;5072235;28;20481;-70
2023/02/04 02:34:26;;;;;;;19.65;13.52;;;;;;;2.08;100.00;100049.28;5072068;28;20119;-71
2023/02/04 02:36:51;;;;;;;16.95;12.48;;;;;;;2.17;100.00;100015.09;5070657;28;20093;-71
2023/02/04 02:39:17;;;;;;;19.33;13.68;;;;;;;2.40;100.00;100033.59;5072270;28;20436;-71
2023/02/04 02:41:43;;;;;;;23.27;14.32;;;;;;;2.47;100.00;100007.75;5071791;28;20039;-71
2023/02/04 02:44:11;;;;;;;25.48;18.75;;;;;;;2.37;100.00;100037.78;5054127;28;20020;-71
2023/02/04 02:53:32;;;;;;;25.05;18.60;;;;;;;2.45;100.00;100031.13;5072249;28;20078;-74
2023/02/04 02:56:00;;;;;;;26.58;18.52;;;;;;;2.25;100.00;100021.00;5071146;28;20028;-71
2023/02/04 02:58:35;;;;;;;25.63;18.10;;;;;;;2.60;100.00;100033.69;5054255;28;20025;-72
2023/02/04 03:01:04;;;;;;;30.35;19.10;;;;;;;2.39;100.00;100026.94;5070522;28;20402;-72
2023/02/04 03:03:37;;;;;;;27.98;18.95;;;;;;;1.96;100.00;99928.91;5072197;28;20024;-72
2023/02/04 03:06:19;;;;;;;25.35;18.73;;;;;;;2.10;100.00;99913.09;5071236;28;20028;-72
2023/02/04 03:08:46;;;;;;;30.85;19.58;;;;;;;1.87;100.00;99919.66;5070806;28;20447;-73
2023/02/04 03:11:12;;;;;;;26.65;19.10;;;;;;;2.12;100.00;99956.53;5070758;28;20025;-72
2023/02/04 03:13:38;;;;;;;27.48;19.88;;;;;;;2.38;100.00;99994.28;5071915;28;20507;-73
2023/02/04 03:16:05;;;;;;;27.55;18.88;;;;;;;2.58;100.00;99985.19;5072065;28;20026;-72
2023/02/04 03:18:31;;;;;;;26.15;18.17;;;;;;;2.26;100.00;99914.00;5071616;28;20493;-72
2023/02/04 03:20:57;;;;;;;33.95;24.27;;;;;;;2.20;100.00;99924.84;5053251;28;20032;-73
2023/02/04 03:23:24;;;;;;;36.38;23.75;;;;;;;2.44;100.00;99984.28;5072085;28;20474;-73
2023/02/04 03:25:49;;;;;;;25.67;19.10;;;;;;;2.04;100.00;99913.06;5070508;28;20082;-72
2023/02/04 03:28:14;;;;;;;26.45;17.15;;;;;;;2.19;100.00;99964.94;5071748;28;20032;-73
2023/02/04 03:30:40;;;;;;;23.75;17.25;;;;;;;1.91;100.00;99905.47;5071970;28;20032;-72
2023/02/04 03:33:05;;;;;;;27.40;19.23;;;;;;;1.95;100.00;99902.16;5071176;28;20024;-72
2023/02/04 03:38:53;;;;;;;25.85;17.55;;;;;;;2.21;100.00;99965.78;5074963;28;20031;-72
2023/02/04 03:44:40;;;;;;;35.50;14.17;;;;;;;2.01;100.00;99969.84;5075051;28;20059;-71
2023/02/04 03:47:05;;;;;;;28.90;16.67;;;;;;;2.08;100.00;99967.38;5074532;28;20784;-71
2023/02/04 03:49:31;;;;;;;27.17;17.02;;;;;;;1.58;100.00;99881.94;5056707;28;20098;-71
2023/02/04 03:51:56;;;;;;;26.88;16.25;;;;;;;2.11;100.00;99959.91;5073676;28;20020;-71
2023/02/04 03:57:44;;;;;;;22.15;15.45;;;;;;;1.26;100.00;99812.41;5075042;28;20090;-73
2023/02/04 04:00:10;;;;;;;36.60;23.80;;;;;;;1.67;100.00;99858.56;5073787;28;20443;-72
2023/02/04 04:02:35;;;;;;;30.92;19.98;;;;;;;2.00;100.00;99923.91;5073251;28;20470;-71
2023/02/04 04:05:01;;;;;;;30.95;19.80;;;;;;;2.14;100.00;99941.53;5074627;28;20028;-71
2023/02/04 04:07:26;;;;;;;34.28;23.02;;;;;;;2.13;100.00;99939.84;5056218;28;20086;-71
2023/02/04 04:09:52;;;;;;;30.92;20.20;;;;;;;1.90;100.00;99899.66;5073867;28;20028;-71
2023/02/04 04:12:17;;;;;;;27.33;18.20;;;;;;;1.93;100.00;99901.31;5073639;28;20024;-71
2023/02/04 04:14:42;;;;;;;29.02;18.35;;;;;;;1.68;100.00;99868.59;5074349;28;20021;-71
2023/02/04 04:17:08;;;;;;;30.17;21.50;;;;;;;1.55;100.00;99861.00;5074201;28;20024;-71
2023/02/04 04:19:33;;;;;;;30.88;20.63;;;;;;;2.20;100.00;99917.31;5074021;28;20115;-71
2023/02/04 04:21:59;;;;;;;26.15;18.30;;;;;;;1.79;100.00;99876.19;5074529;28;20064;-72
2023/02/04 04:24:24;;;;;;;48.35;25.90;;;;;;;1.72;100.00;99842.72;5072861;28;20035;-71
2023/02/04 04:26:49;;;;;;;75.80;38.13;;;;;;;2.04;100.00;99895.50;5074354;28;20025;-71
2023/02/04 04:29:15;;;;;;;38.17;24.92;;;;;;;1.69;100.00;99865.28;5073415;28;20047;-71
2023/02/04 04:31:40;;;;;;;33.03;22.08;;;;;;;2.13;100.00;99924.81;5074029;28;20104;-70
2023/02/04 04:34:06;;;;;;;28.83;20.73;;;;;;;1.89;100.00;99913.00;5073319;28;20031;-71
2023/02/04 04:36:31;;;;;;;26.23;18.65;;;;;;;1.56;100.00;99852.69;5055787;28;20110;-71
2023/02/04 04:38:56;;;;;;;30.75;20.02;;;;;;;2.85;100.00;99851.44;5073961;28;20031;-70
2023/02/04 04:41:22;;;;;;;26.77;20.00;;;;;;;2.25;100.00;99914.84;5072406;28;20035;-71
2023/02/04 04:43:47;;;;;;;27.45;20.23;;;;;;;2.17;100.00;99902.28;5073770;28;20028;-71
2023/02/04 04:46:12;;;;;;;25.42;18.08;;;;;;;1.95;100.00;99852.03;5072058;28;20113;-71
2023/02/04 04:48:38;;;;;;;21.60;15.85;;;;;;;1.97;100.00;99887.97;5073264;28;20032;-71
2023/02/04 04:51:03;;;;;;;20.38;15.48;;;;;;;2.47;100.00;99911.56;5073361;28;20048;-71
2023/02/04 04:53:29;;;;;;;21.38;15.50;;;;;;;2.15;100.00;99898.06;5055056;28;20463;-71
2023/02/04 04:55:54;;;;;;;21.30;15.98;;;;;;;1.92;100.00;99839.50;5073689;28;20126;-71
2023/02/04 05:01:41;;;;;;;20.98;14.90;;;;;;;2.47;100.00;99894.03;5073129;28;20047;-70
2023/02/04 05:04:06;;;;;;;22.63;15.77;;;;;;;2.33;100.00;99893.13;5072744;28;20021;-70
2023/02/04 05:06:32;;;;;;;22.30;15.93;;;;;;;2.29;100.00;99906.50;5073082;28;20427;-70
2023/02/04 05:08:57;;;;;;;27.88;18.27;;;;;;;1.92;100.00;99842.84;5072760;28;20050;-70
2023/02/04 05:11:23;;;;;;;26.13;17.38;;;;;;;2.41;100.00;99904.88;5054424;28;20029;-71
2023/02/04 05:13:48;;;;;;;18.92;14.20;;;;;;;1.35;100.00;99823.31;5072376;28;20029;-70
2023/02/04 05:16:14;;;;;;;19.83;14.30;;;;;;;1.50;100.00;99812.56;5072525;28;20020;-70
2023/02/04 05:18:40;;;;;;;19.40;13.75;;;;;;;2.00;100.00;99915.56;5072664;28;20620;-70
2023/02/04 05:21:07;;;;;;;20.15;14.55;;;;;;;1.57;100.00;99869.38;5071207;28;20032;-69
2023/02/04 05:23:33;;;;;;;21.35;15.50;;;;;;;1.36;100.00;99789.97;5071336;28;20031;-71
2023/02/04 05:25:58;;;;;;;21.83;15.18;;;;;;;2.16;100.00;99893.06;5073494;28;20032;-73
2023/02/04 05:28:24;;;;;;;21.83;15.65;;;;;;;1.71;100.00;99833.56;5072673;28;20451;-71
2023/02/04 05:30:49;;;;;;;28.08;19.55;;;;;;;2.00;100.00;99890.50;5072585;28;20167;-71
2023/02/04 05:33:14;;;;;;;29.58;21.58;;;;;;;2.12;100.00;99881.34;5071865;28;20380;-71
2023/02/04 05:35:40;;;;;;;32.63;23.35;;;;;;;2.00;100.00;99861.25;5073927;28;20031;-72
2023/02/04 05:38:05;;;;;;;54.33;34.75;;;;;;;1.38;100.00;99775.78;5058069;28;20024;-72
2023/02/04 05:43:52;;;;;;;51.90;32.17;;;;;;;1.97;100.00;99901.34;5072551;28;20108;-70
2023/02/04 05:46:17;;;;;;;52.55;33.58;;;;;;;2.00;100.00;99885.47;5070786;28;20467;-70
2023/02/04 05:48:43;;;;;;;33.65;24.10;;;;;;;1.84;100.00;99876.22;5054120;28;20448;-72
2023/02/04 05:54:36;;;;;;;41.13;26.40;;;;;;;1.65;100.00;99823.50;5072507;28;20047;-71
2023/02/04 05:57:01;;;;;;;36.33;25.80;;;;;;;1.83;100.00;99885.38;5071146;28;20036;-71
2023/02/04 05:59:27;;;;;;;36.80;26.50;;;;;;;1.55;100.00;99831.78;5071630;28;20020;-72
2023/02/04 06:01:52;;;;;;;52.28;33.22;;;;;;;1.58;100.00;99878.56;5072301;28;20028;-72
2023/02/04 06:04:17;;;;;;;31.83;23.83;;;;;;;1.38;100.00;99848.41;5072322;28;20028;-72
2023/02/04 06:06:43;;;;;;;33.85;24.35;;;;;;;1.18;100.00;99814.03;5072062;28;20099;-71
2023/02/04 06:12:29;;;;;;;33.13;24.10;;;;;;;1.58;100.00;99896.09;5072523;28;20456;-71
2023/02/04 06:14:55;;;;;;;38.40;25.77;;;;;;;1.39;100.00;99885.13;5071489;28;20033;-71
2023/02/04 06:17:20;;;;;;;38.38;26.13;;;;;;;1.73;100.00;99897.03;5072277;28;20025;-70
2023/02/04 06:19:46;;;;;;;37.08;25.92;;;;;;;1.20;100.00;99812.38;5071431;28;20029;-70
2023/02/04 06:22:11;;;;;;;33.10;25.08;;;;;;;1.19;100.00;99799.03;5071240;28;20463;-71
2023/02/04 06:24:36;;;;;;;32.95;24.38;;;;;;;1.42;100.00;99800.03;5070531;28;20431;-71
2023/02/04 06:27:02;;;;;;;37.08;24.67;;;;;;;1.41;100.00;99820.00;5072113;28;20032;-71
2023/02/04 06:29:27;;;;;;;39.80;27.42;;;;;;;2.07;100.00;99888.03;5071519;28;20041;-70
2023/02/04 06:31:53;;;;;;;32.70;24.85;;;;;;;2.09;100.00;99871.31;5071903;28;20027;-69
2023/02/04 06:34:18;;;;;;;30.88;22.73;;;;;;;2.49;100.00;99885.69;5071888;28;20169;-72
2023/02/04 06:40:05;;;;;;;28.70;22.67;;;;;;;2.31;100.00;99868.06;5072021;28;20039;-70
2023/02/04 06:45:52;;;;;;;32.78;23.98;;;;;;;1.85;100.00;99867.84;5072152;28;20051;-71
2023/02/04 06:48:18;;;;;;;32.53;23.52;;;;;;;1.35;100.00;99747.38;5071581;28;20481;-70
2023/02/04 06:50:43;;;;;;;39.60;26.45;;;;;;;1.73;100.00;99829.41;5071454;28;20155;-70
2023/02/04 06:56:30;;;;;;;46.57;32.67;;;;;;;1.87;100.00;99857.00;5071874;28;20430;-70
2023/02/04 06:58:56;;;;;;;50.10;35.38;;;;;;;1.93;100.00;99896.28;5071655;28;20028;-74
2023/02/04 07:01:21;;;;;;;54.97;37.97;;;;;;;1.47;100.00;99848.44;5053850;28;20123;-73
2023/02/04 07:07:10;;;;;;;52.00;36.27;;;;;;;2.04;100.00;99857.09;5071833;28;20027;-71
2023/02/04 07:09:36;;;;;;;51.95;36.60;;;;;;;2.03;100.00;99851.25;5070671;28;20048;-70
2023/02/04 07:12:02;;;;;;;48.97;35.80;;;;;;;2.55;100.00;99904.91;5075215;28;20115;-70
2023/02/04 07:14:28;;;;;;;49.88;34.35;;;;;;;2.22;100.00;99914.84;5056388;28;20383;-70
2023/02/04 07:16:53;;;;;;;48.80;33.38;;;;;;;1.98;100.00;99862.09;5056441;28;20032;-70
2023/02/04 07:19:19;;;;;;;50.83;34.20;;;;;;;2.32;100.00;99906.50;5074618;28;20062;-70
2023/02/04 07:25:07;;;;;;;33.30;22.83;;;;;;;2.19;100.00;99837.94;5075220;28;20456;-69
2023/02/04 07:27:32;;;;;;;48.25;32.80;;;;;;;2.55;100.00;99909.94;5074138;28;20028;-70
2023/02/04 07:29:58;;;;;;;43.30;31.23;;;;;;;2.36;100.00;99831.28;5073504;28;20493;-69
2023/02/04 07:32:23;;;;;;;63.28;41.10;;;;;;;2.43;100.00;99882.31;5073313;28;20403;-70
2023/02/04 07:34:48;;;;;;;54.13;37.45;;;;;;;2.63;100.00;99909.09;5074302;28;20143;-69
2023/02/04 07:37:14;;;;;;;47.60;34.72;;;;;;;1.92;100.00;99821.97;5074726;28;20043;-70
2023/02/04 07:39:39;;;;;;;40.05;30.40;;;;;;;1.89;100.00;99837.81;5074143;28;20561;-70
2023/02/04 07:42:05;;;;;;;35.63;27.60;;;;;;;2.31;100.00;99904.84;5074220;28;20032;-69
2023/02/04 07:44:30;;;;;;;38.17;27.13;;;;;;;2.18;100.00;99848.78;5073937;28;20032;-71
2023/02/04 07:46:56;;;;;;;33.85;25.83;;;;;;;1.84;100.00;99826.94;5074159;28;20035;-70
2023/02/04 07:49:21;;;;;;;38.47;26.92;;;;;;;1.46;100.00;99779.19;5074632;28;20049;-69
2023/02/04 07:51:47;;;;;;;38.35;27.60;;;;;;;2.53;100.00;99919.13;5074117;28;20032;-72
2023/02/04 07:54:12;;;;;;;38.28;28.15;;;;;;;2.48;100.00;99908.22;5074699;28;20025;-71
2023/02/04 07:56:37;;;;;;;42.83;28.55;;;;;;;2.38;100.00;99904.00;5056001;28;20055;-71
2023/02/04 07:59:03;;;;;;;34.83;25.55;;;;;;;2.02;100.00;99824.50;5074983;28;20074;-72
2023/02/04 08:04:50;;;;;;;39.00;27.15;;;;;;;2.32;100.00;99807.03;5075089;28;20121;-73
2023/02/04 08:07:15;;;;;;;36.13;25.75;;;;;;;3.12;100.00;99818.81;5074921;28;20062;-71
2023/02/04 08:09:41;;;;;;;37.63;27.20;;;;;;;3.06;100.00;99900.00;5073928;28;20486;-72
2023/02/04 08:15:34;;;;;;;27.58;19.60;;;;;;;2.24;100.00;99861.34;5074596;28;20134;-73
2023/02/04 08:17:59;;;;;;;27.13;20.52;;;;;;;2.27;100.00;99823.75;5073657;28;20035;-73
2023/02/04 08:20:25;;;;;;;29.85;21.38;;;;;;;3.30;100.00;99919.25;5073627;28;20047;-71
2023/02/04 08:26:12;;;;;;;45.08;18.73;;;;;;;5.92;100.00;99849.00;5074407;28;20089;-70
2023/02/04 08:28:37;;;;;;;39.22;26.40;;;;;;;2.82;100.00;99842.22;5055608;28;20458;-73
2023/02/04 08:31:05;;;;;;;48.53;31.48;;;;;;;2.83;100.00;99818.81;5073485;28;20037;-73
2023/02/04 08:36:52;;;;;;;36.80;26.33;;;;;;;2.40;100.00;99756.88;5074078;28;20604;-73
2023/02/04 08:42:39;;;;;;;33.92;25.17;;;;;;;3.10;100.00;99828.84;5073920;28;20032;-73
2023/02/04 08:45:05;;;;;;;34.35;23.52;;;;;;;3.02;100.00;99812.09;5072101;28;20024;-73
2023/02/04 08:47:30;;;;;;;28.60;21.60;;;;;;;3.65;100.00;99899.94;5073490;28;20055;-74
2023/02/04 08:53:36;;;;;;;30.42;21.40;;;;;;;3.28;100.00;99884.09;5064877;28;20419;-72
2023/02/04 08:56:02;;;;;;;33.13;23.58;;;;;;;3.78;100.00;99904.13;5073397;28;20036;-72
2023/02/04 09:01:51;;;;;;;27.33;18.20;;;;;;;3.16;100.00;99915.88;5073389;28;20067;-72
2023/02/04 09:04:20;;;;;;;87.97;27.80;;;;;;;3.42;100.00;99894.13;5073018;28;20027;-73
2023/02/04 09:06:46;;;;;;;62.35;26.17;;;;;;;3.26;100.00;99824.66;5070072;28;20029;-71
2023/02/04 09:09:12;;;;;;;190.55;33.10;;;;;;;3.73;100.00;99903.28;5071258;28;20058;-72
2023/02/04 09:11:38;;;;;;;22.60;16.52;;;;;;;3.53;100.00;99844.69;5071521;28;20028;-72
2023/02/04 09:14:03;;;;;;;31.13;22.38;;;;;;;3.31;100.00;99919.25;5054904;28;20028;-73
2023/02/04 09:16:29;;;;;;;23.73;17.80;;;;;;;3.45;100.00;99902.50;5072066;28;20036;-73
2023/02/04 09:18:54;;;;;;;42.10;23.15;;;;;;;3.33;100.00;99887.41;5073155;28;20482;-73
2023/02/04 09:21:20;;;;;;;31.90;18.90;;;;;;;2.93;100.00;99837.22;5072129;28;20036;-74
2023/02/04 09:27:07;;;;;;;16.88;12.88;;;;;;;3.05;100.00;99745.16;5073330;28;20063;-73
2023/02/04 09:32:54;;;;;;;22.77;16.20;;;;;;;4.01;100.00;99867.19;5073287;28;20513;-73
2023/02/04 09:35:19;;;;;;;22.25;17.35;;;;;;;3.10;100.00;99797.88;5072214;28;20111;-73
2023/02/04 09:37:45;;;;;;;18.70;13.57;;;;;;;3.31;100.00;99808.72;5054681;28;20024;-72
2023/02/04 09:40:16;;;;;;;17.80;14.07;;;;;;;3.04;100.00;99785.34;5054524;28;20395;-72
2023/02/04 09:42:43;;;;;;;14.70;11.52;;;;;;;3.62;100.00;99789.41;5071090;28;20150;-72
2023/02/04 09:45:18;;;;;;;22.73;17.02;;;;;;;4.31;100.00;99863.72;5072486;28;20059;-72
2023/02/04 09:51:07;;;;;;;37.90;24.45;;;;;;;3.50;100.00;99766.81;5072991;28;20410;-71
2023/02/04 09:53:34;;;;;;;65.18;48.05;;;;;;;4.26;100.00;99820.94;5072319;28;20080;-71
2023/02/04 09:55:59;;;;;;;23.30;16.73;;;;;;;3.99;100.00;99838.69;5071808;28;20024;-71
2023/02/04 09:58:30;;;;;;;23.08;17.50;;;;;;;3.57;100.00;99745.00;5072422;28;20094;-73
2023/02/04 10:01:00;;;;;;;28.00;20.25;;;;;;;3.89;100.00;99754.09;5070735;28;20403;-73
2023/02/04 10:03:25;;;;;;;18.63;13.85;;;;;;;4.39;100.00;99792.38;5054815;28;20032;-72
2023/02/04 10:05:51;;;;;;;26.33;20.13;;;;;;;4.81;100.00;99826.50;5071251;28;20025;-75
2023/02/04 10:08:20;;;;;;;23.33;17.35;;;;;;;5.38;100.00;99821.78;5072055;28;20031;-70
2023/02/04 10:10:48;;;;;;;20.52;15.60;;;;;;;5.70;100.00;99802.13;5070256;28;20048;-73
2023/02/04 10:13:19;;;;;;;16.05;12.82;;;;;;;5.53;100.00;99681.31;5072149;28;20039;-74
2023/02/04 10:15:47;;;;;;;19.27;14.50;;;;;;;6.72;100.00;99800.75;5073055;28;20119;-74
2023/02/04 10:18:26;;;;;;;20.63;14.18;;;;;;;6.14;100.00;99720.00;5072520;28;20432;-74
2023/02/04 10:20:59;;;;;;;18.52;13.68;;;;;;;6.06;100.00;99726.03;5073123;28;20497;-73
2023/02/04 10:23:25;;;;;;;18.77;13.93;;;;;;;6.09;100.00;99699.06;5076076;28;20026;-72
2023/02/04 10:25:50;;;;;;;19.20;14.75;;;;;;;6.21;100.00;99740.94;5076027;28;20056;-72
2023/02/04 10:28:17;;;;;;;15.77;12.95;;;;;;;6.95;100.00;99709.44;5071148;28;20025;-72
2023/02/04 10:30:43;;;;;;;14.50;12.40;;;;;;;6.93;100.00;99765.03;5070618;28;20063;-73
2023/02/04 10:33:23;;;;;;;16.42;13.63;;;;;;;6.05;100.00;99638.56;5054934;28;20439;-73
2023/02/04 10:35:51;;;;;;;14.88;12.02;;;;;;;7.48;100.00;99757.31;5072220;28;20020;-73
2023/02/04 10:38:17;;;;;;;13.10;10.38;;;;;;;7.52;100.00;99740.38;5053433;28;20039;-71
2023/02/04 10:40:43;;;;;;;23.05;10.68;;;;;;;7.92;100.00;99742.94;5071574;28;20025;-70
2023/02/04 10:43:16;;;;;;;18.30;9.93;;;;;;;7.23;100.00;99737.59;5071546;28;20035;-69
2023/02/04 10:45:46;;;;;;;18.70;13.65;;;;;;;8.16;100.00;99720.44;5074624;28;20111;-71
2023/02/04 10:48:18;;;;;;;19.27;14.55;;;;;;;7.80;100.00;99703.56;5075982;28;20024;-74
2023/02/04 10:50:48;;;;;;;15.38;11.75;;;;;;;7.53;100.00;99722.66;5076397;28;20463;-75
2023/02/04 10:56:15;;;;;;;32.20;11.15;;;;;;;9.43;100.00;99709.66;5076113;28;20505;-71
2023/02/04 10:58:41;;;;;;;13.77;10.18;;;;;;;8.08;100.00;99616.00;5075131;28;20428;-72
2023/02/04 11:01:11;;;;;;;14.73;9.20;;;;;;;9.25;100.00;99703.38;5057390;28;20024;-71
2023/02/04 11:03:38;;;;;;;14.55;10.18;;;;;;;8.71;100.00;99690.44;5075752;28;20107;-72
2023/02/04 11:06:10;;;;;;;14.02;8.93;;;;;;;8.52;100.00;99678.25;5073924;28;20025;-71
2023/02/04 11:08:37;;;;;;;13.63;9.45;;;;;;;8.11;100.00;99607.50;5075314;28;20032;-71
2023/02/04 11:14:28;;;;;;;12.83;10.00;;;;;;;7.02;100.00;99670.56;5075716;28;20125;-71
2023/02/04 11:20:28;;;;;;;12.73;10.40;;;;;;;7.12;100.00;99671.22;5075222;28;20051;-71
2023/02/04 11:22:54;;;;;;;11.45;8.88;;;;;;;6.39;100.00;99571.56;5073749;28;20025;-71
2023/02/04 11:25:35;;;;;;;8.45;7.55;;;;;;;7.27;100.00;99683.59;5074394;28;20051;-71
2023/02/04 11:28:22;;;;;;;12.43;9.95;;;;;;;7.38;100.00;99671.56;5073454;28;20391;-71
2023/02/04 11:30:58;;;;;;;21.17;14.23;;;;;;;7.11;100.00;99667.03;5073983;28;20039;-72
2023/02/04 11:33:24;;;;;;;10.73;8.27;;;;;;;6.70;100.00;99529.72;5073406;28;20024;-71
2023/02/04 11:36:04;;;;;;;11.00;8.68;;;;;;;7.84;100.00;99659.59;5074328;28;20023;-72
2023/02/04 11:38:31;;;;;;;11.90;7.00;;;;;;;7.56;100.00;99661.06;5075611;28;20497;-72
2023/02/04 11:40:58;;;;;;;9.50;7.97;;;;;;;7.70;100.00;99649.78;5074269;28;20032;-72
2023/02/04 11:46:51;;;;;;;3.17;1.98;;;;;;;7.47;100.00;99651.13;5074589;28;20126;-72
2023/02/04 11:49:19;;;;;;;6.10;4.90;;;;;;;7.23;100.00;99575.81;5072776;28;21188;-72
2023/02/04 11:51:45;;;;;;;5.63;4.82;;;;;;;7.28;100.00;99635.50;5074465;28;20024;-72
2023/02/04 11:54:12;;;;;;;6.32;4.45;;;;;;;7.42;100.00;99638.59;5072887;28;20603;-72
2023/02/04 11:56:38;;;;;;;9.10;7.05;;;;;;;7.37;100.00;99589.00;5073165;28;20051;-71
2023/02/04 11:59:03;;;;;;;7.25;5.20;;;;;;;7.05;100.00;99551.75;5074653;28;20056;-72
2023/02/04 12:01:31;;;;;;;10.63;6.18;;;;;;;7.03;100.00;99537.47;5073508;28;20447;-71
2023/02/04 12:03:59;;;;;;;13.93;8.23;;;;;;;7.11;100.00;99535.63;5074308;28;20028;-69
2023/02/04 12:06:28;;;;;;;4.72;3.83;;;;;;;6.90;100.00;99521.72;5072681;28;20387;-72
2023/02/04 12:09:21;;;;;;;8.32;5.45;;;;;;;7.38;100.00;99620.97;5074353;28;20043;-72
2023/02/04 12:11:58;;;;;;;5.43;4.88;;;;;;;6.83;100.00;99523.53;5074283;28;20375;-72
2023/02/04 12:14:32;;;;;;;5.95;3.40;;;;;;;7.31;100.00;99602.56;5072712;28;20032;-72
2023/02/04 12:16:58;;;;;;;7.00;5.97;;;;;;;6.67;100.00;99489.38;5074038;28;20059;-71
2023/02/04 12:19:23;;;;;;;11.90;9.70;;;;;;;6.84;100.00;99484.81;5072362;28;20020;-71
2023/02/04 12:21:49;;;;;;;11.63;8.10;;;;;;;7.39;100.00;99584.75;5073710;28;20119;-71
2023/02/04 12:24:14;;;;;;;10.45;7.95;;;;;;;7.41;100.00;99570.34;5073390;28;20107;-71
2023/02/04 12:26:39;;;;;;;15.32;10.57;;;;;;;6.88;100.00;99488.94;5073609;28;20025;-71
2023/02/04 12:29:05;;;;;;;3.67;2.85;;;;;;;7.63;100.00;99567.31;5055583;28;20020;-71
2023/02/04 12:31:32;;;;;;;6.32;5.35;;;;;;;7.24;100.00;99492.34;5054950;28;20028;-71
2023/02/04 12:33:58;;;;;;;18.92;14.38;;;;;;;7.81;100.00;99556.75;5073688;28;20025;-71
2023/02/04 12:36:26;;;;;;;14.27;7.75;;;;;;;8.05;100.00;99554.50;5055448;28;20395;-71
2023/02/04 12:38:52;;;;;;;8.25;5.18;;;;;;;7.46;100.00;99452.22;5073589;28;20047;-72
2023/02/04 12:41:18;;;;;;;10.02;9.02;;;;;;;7.45;100.00;99456.47;5072924;28;20036;-72
2023/02/04 12:43:44;;;;;;;17.33;14.15;;;;;;;7.92;100.00;99472.16;5073834;28;20425;-73
2023/02/04 12:46:10;;;;;;;10.57;7.50;;;;;;;7.72;100.00;99453.28;5073013;28;20059;-73
2023/02/04 12:48:39;;;;;;;4.10;2.85;;;;;;;8.14;100.00;99529.78;5072417;28;20043;-73
2023/02/04 12:51:05;;;;;;;5.13;2.88;;;;;;;8.21;100.00;99533.00;5072168;28;20024;-72
2023/02/04 12:53:30;;;;;;;4.28;2.72;;;;;;;8.32;100.00;99549.59;5072880;28;20052;-75
2023/02/04 12:55:56;;;;;;;5.10;3.45;;;;;;;8.12;100.00;99507.94;5072852;28;20036;-72
2023/02/04 12:58:21;;;;;;;4.28;3.08;;;;;;;7.16;100.00;99357.75;5072703;28;20035;-72
2023/02/04 13:04:09;;;;;;;12.07;8.63;;;;;;;7.45;100.00;99531.47;5073432;28;20410;-72
2023/02/04 13:06:34;;;;;;;8.77;6.43;;;;;;;7.06;100.00;99469.19;5071376;28;20028;-71
2023/02/04 13:08:59;;;;;;;11.43;8.93;;;;;;;7.36;100.00;99536.75;5073214;28;20024;-71
2023/02/04 13:11:25;;;;;;;11.85;9.30;;;;;;;6.64;100.00;99448.19;5072360;28;20111;-70
2023/02/04 13:17:12;;;;;;;11.05;8.18;;;;;;;7.03;100.00;99499.59;5073313;28;20039;-73
2023/02/04 13:19:37;;;;;;;4.40;3.58;;;;;;;6.48;100.00;99447.69;5071248;28;20024;-72
2023/02/04 13:22:02;;;;;;;10.15;6.00;;;;;;;7.16;100.00;99542.25;5071491;28;20036;-72
2023/02/04 13:24:28;;;;;;;7.50;6.00;;;;;;;7.21;100.00;99564.91;5071143;28;20123;-73
2023/02/04 13:26:54;;;;;;;8.20;6.18;;;;;;;6.54;100.00;99451.75;5072969;28;20024;-73
2023/02/04 13:29:20;;;;;;;9.68;6.70;;;;;;;6.89;100.00;99546.16;5072950;28;20027;-73